createdAt,value
2019-05-02T00:01:40.073Z,19.30
2019-05-02T00:04:12.394Z,25.17
2019-05-02T00:06:44.510Z,18.77
2019-05-02T00:09:15.017Z,17.20
2019-05-02T00:11:58.342Z,18.50
2019-05-02T00:14:18.027Z,21.93
2019-05-02T00:16:49.289Z,20.83
2019-05-02T00:19:20.635Z,17.50
2019-05-02T00:21:51.195Z,24.50
2019-05-02T00:24:21.711Z,21.07
2019-05-02T00:26:56.214Z,21.67
2019-05-02T00:29:25.048Z,20.33
2019-05-02T00:31:56.961Z,26.53
2019-05-02T00:34:27.481Z,21.10
2019-05-02T00:36:58.231Z,24.43
2019-05-02T00:39:28.783Z,23.00
2019-05-02T00:42:12.098Z,25.50
2019-05-02T00:44:31.511Z,23.53
2019-05-02T00:47:16.829Z,25.83
2019-05-02T00:49:48.426Z,25.83
2019-05-02T00:52:20.186Z,25.33
2019-05-02T00:54:54.931Z,25.57
2019-05-02T00:57:22.878Z,29.00
2019-05-02T00:59:53.339Z,30.30
2019-05-02T01:02:30.156Z,33.57
2019-05-02T01:05:03.357Z,32.50
2019-05-02T01:07:33.130Z,30.97
2019-05-02T01:10:03.742Z,33.27
2019-05-02T01:12:34.371Z,39.27
2019-05-02T01:15:08.407Z,41.43
2019-05-02T01:17:37.270Z,45.97
2019-05-02T01:20:08.136Z,45.63
2019-05-02T01:22:38.644Z,53.50
2019-05-02T01:25:15.009Z,43.23
2019-05-02T01:28:01.706Z,53.23
2019-05-02T01:30:47.243Z,46.00
2019-05-02T01:33:36.843Z,50.70
2019-05-02T01:36:12.866Z,53.93
2019-05-02T01:38:46.410Z,51.77
2019-05-02T01:41:16.905Z,46.27
2019-05-02T01:43:47.342Z,49.90
2019-05-02T01:46:22.162Z,48.43
2019-05-02T01:48:50.369Z,56.60
2019-05-02T01:51:20.839Z,50.10
2019-05-02T01:53:51.309Z,54.10
2019-05-02T01:56:21.818Z,57.67
2019-05-02T01:58:53.144Z,51.70
2019-05-02T02:01:24.565Z,55.73
2019-05-02T02:03:55.031Z,50.13
2019-05-02T02:06:25.567Z,54.47
2019-05-02T02:08:56.083Z,56.00
2019-05-02T02:11:28.462Z,53.37
2019-05-02T02:13:58.810Z,49.47
2019-05-02T02:16:29.342Z,50.57
2019-05-02T02:19:06.897Z,51.03
2019-05-02T02:22:02.705Z,54.17
2019-05-02T02:24:38.310Z,56.37
2019-05-02T02:27:07.714Z,55.13
2019-05-02T02:29:38.939Z,54.90
2019-05-02T02:32:10.510Z,47.33
2019-05-02T02:34:40.904Z,56.73
2019-05-02T02:37:13.130Z,50.07
2019-05-02T02:39:48.503Z,45.83
2019-05-02T02:42:15.732Z,43.17
2019-05-02T02:44:54.667Z,49.73
2019-05-02T02:47:25.279Z,46.03
2019-05-02T02:50:02.316Z,44.57
2019-05-02T02:52:27.908Z,44.13
2019-05-02T02:54:58.372Z,46.80
2019-05-02T02:57:28.923Z,47.23
2019-05-02T03:00:07.871Z,51.20
2019-05-02T03:02:34.102Z,45.43
2019-05-02T03:05:05.247Z,43.43
2019-05-02T03:07:35.723Z,43.37
2019-05-02T03:10:08.174Z,41.10
2019-05-02T03:12:56.126Z,50.30
2019-05-02T03:15:29.769Z,54.93
2019-05-02T03:18:02.071Z,42.73
2019-05-02T03:20:39.880Z,42.10
2019-05-02T03:23:04.904Z,37.10
2019-05-02T03:25:50.045Z,39.87
2019-05-02T03:28:17.458Z,42.23
2019-05-02T03:30:40.035Z,38.33
2019-05-02T03:33:12.360Z,39.17
2019-05-02T03:35:48.646Z,40.30
2019-05-02T03:38:16.388Z,37.10
2019-05-02T03:40:46.975Z,39.80
2019-05-02T03:43:18.964Z,40.03
2019-05-02T03:45:49.873Z,36.47
2019-05-02T03:48:25.741Z,38.13
2019-05-02T03:50:53.770Z,32.80
2019-05-02T03:53:25.973Z,34.53
2019-05-02T03:55:56.652Z,34.83
2019-05-02T03:58:27.181Z,36.70
2019-05-02T04:01:01.734Z,35.90
2019-05-02T04:03:34.287Z,33.17
2019-05-02T04:06:02.682Z,30.47
2019-05-02T04:08:34.309Z,30.47
2019-05-02T04:11:24.909Z,28.33
2019-05-02T04:13:58.687Z,25.17
2019-05-02T04:16:30.225Z,25.03
2019-05-02T04:19:07.737Z,26.83
2019-05-02T04:21:38.340Z,28.87
2019-05-02T04:24:13.243Z,23.23
2019-05-02T04:26:52.621Z,25.47
2019-05-02T04:29:16.058Z,19.33
2019-05-02T04:31:46.554Z,30.50
2019-05-02T04:34:17.930Z,18.07
2019-05-02T04:37:00.270Z,21.17
2019-05-02T04:39:21.770Z,15.20
2019-05-02T04:41:52.572Z,17.07
2019-05-02T04:44:29.784Z,17.97
2019-05-02T04:47:02.658Z,18.83
2019-05-02T04:49:33.002Z,14.77
2019-05-02T04:52:07.049Z,19.10
2019-05-02T04:54:32.848Z,17.13
2019-05-02T04:57:03.411Z,20.33
2019-05-02T04:59:33.982Z,17.60
2019-05-02T05:02:04.493Z,23.23
2019-05-02T05:04:42.005Z,19.03
2019-05-02T05:07:09.367Z,18.33
2019-05-02T05:09:40.311Z,20.00
2019-05-02T05:12:11.061Z,15.67
2019-05-02T05:14:43.162Z,24.63
2019-05-02T05:17:19.642Z,19.00
2019-05-02T05:19:48.767Z,20.23
2019-05-02T05:22:20.261Z,20.13
2019-05-02T05:24:58.235Z,17.03
2019-05-02T05:27:29.787Z,14.37
2019-05-02T05:30:08.447Z,20.80
2019-05-02T05:32:32.645Z,20.10
2019-05-02T05:35:07.977Z,18.47
2019-05-02T05:37:38.069Z,28.77
2019-05-02T05:40:08.364Z,17.83
2019-05-02T05:42:38.955Z,16.77
2019-05-02T05:45:13.651Z,14.80
2019-05-02T05:47:41.697Z,14.77
2019-05-02T05:50:12.388Z,13.00
2019-05-02T05:52:42.893Z,17.27
2019-05-02T05:55:20.537Z,14.97
2019-05-02T05:57:47.588Z,14.43
2019-05-02T06:00:23.058Z,14.00
2019-05-02T06:02:56.261Z,13.83
2019-05-02T06:05:23.895Z,14.40
2019-05-02T06:07:54.483Z,12.23
2019-05-02T06:10:25.215Z,14.00
2019-05-02T06:12:55.889Z,13.03
2019-05-02T06:15:26.510Z,23.13
2019-05-02T06:18:00.091Z,12.53
2019-05-02T06:20:31.775Z,18.93
2019-05-02T06:23:02.403Z,17.87
2019-05-02T06:25:36.774Z,16.53
2019-05-02T06:28:09.194Z,15.67
2019-05-02T06:30:39.852Z,16.13
2019-05-02T06:33:10.361Z,34.30
2019-05-02T06:35:40.891Z,14.87
2019-05-02T06:38:11.518Z,11.77
2019-05-02T06:40:44.612Z,23.07
2019-05-02T06:43:14.250Z,19.63
2019-05-02T06:45:44.911Z,19.10
2019-05-02T06:48:17.644Z,16.20
2019-05-02T06:50:47.685Z,16.27
2019-05-02T06:53:18.293Z,18.20
2019-05-02T06:55:49.149Z,16.77
2019-05-02T06:58:20.711Z,22.20
2019-05-02T07:00:58.226Z,20.03
2019-05-02T07:03:23.714Z,23.77
2019-05-02T07:05:58.805Z,26.37
2019-05-02T07:08:27.761Z,22.57
2019-05-02T07:11:01.267Z,25.97
2019-05-02T07:13:30.437Z,24.00
2019-05-02T07:16:10.594Z,21.33
2019-05-02T07:19:04.060Z,22.70
2019-05-02T07:21:34.544Z,26.37
2019-05-02T07:24:05.012Z,22.33
2019-05-02T07:26:35.509Z,25.83
2019-05-02T07:29:05.989Z,25.77
2019-05-02T07:31:36.553Z,23.83
2019-05-02T07:34:08.051Z,31.23
2019-05-02T07:36:39.096Z,44.00
2019-05-02T07:39:10.442Z,25.47
2019-05-02T07:41:41.239Z,23.43
2019-05-02T07:44:11.894Z,25.23
2019-05-02T07:46:51.543Z,22.20
2019-05-02T07:49:15.007Z,20.77
2019-05-02T07:51:52.388Z,25.97
2019-05-02T07:54:24.814Z,22.33
2019-05-02T07:56:53.434Z,24.60
2019-05-02T07:59:25.137Z,22.03
2019-05-02T08:01:55.722Z,18.67
2019-05-02T08:04:26.398Z,21.23
2019-05-02T08:06:57.030Z,20.97
2019-05-02T08:09:27.909Z,23.13
2019-05-02T08:11:58.476Z,33.73
2019-05-02T08:14:34.690Z,20.73
2019-05-02T08:17:05.617Z,22.00
2019-05-02T08:19:37.560Z,49.97
2019-05-02T08:22:13.165Z,21.20
2019-05-02T08:24:39.284Z,18.97
2019-05-02T08:27:36.788Z,18.30
2019-05-02T08:30:09.338Z,18.97
2019-05-02T08:32:39.918Z,20.17
2019-05-02T08:35:10.715Z,18.43
2019-05-02T08:37:43.044Z,13.83
2019-05-02T08:40:13.649Z,15.93
2019-05-02T08:42:44.109Z,16.43
2019-05-02T08:45:14.684Z,18.10
2019-05-02T08:47:45.180Z,26.60
2019-05-02T08:50:15.769Z,15.10
2019-05-02T08:52:48.039Z,19.90
2019-05-02T08:55:18.733Z,18.97
2019-05-02T08:57:49.274Z,14.53
2019-05-02T09:00:20.000Z,25.87
2019-05-02T09:02:50.570Z,19.00
2019-05-02T09:05:21.112Z,15.33
2019-05-02T09:07:51.570Z,18.77
2019-05-02T09:10:22.161Z,16.37
2019-05-02T09:12:52.866Z,17.47
2019-05-02T09:15:23.819Z,16.03
2019-05-02T09:17:56.422Z,14.50
2019-05-02T09:20:26.366Z,15.00
2019-05-02T09:22:56.854Z,15.63
2019-05-02T09:25:27.882Z,18.63
2019-05-02T09:28:01.878Z,13.90
2019-05-02T09:30:32.698Z,24.03
2019-05-02T09:33:06.524Z,17.67
2019-05-02T09:35:35.879Z,52.90
2019-05-02T09:38:06.555Z,15.83
2019-05-02T09:40:37.125Z,21.27
2019-05-02T09:43:07.750Z,19.10
2019-05-02T09:45:41.034Z,16.00
2019-05-02T09:48:12.608Z,19.43
2019-05-02T09:50:43.545Z,14.53
2019-05-02T09:53:20.652Z,17.30
2019-05-02T09:55:50.276Z,20.07
2019-05-02T09:58:21.192Z,22.93
2019-05-02T10:01:11.905Z,18.07
2019-05-02T10:03:44.565Z,18.87
2019-05-02T10:06:18.190Z,19.07
2019-05-02T10:08:47.284Z,21.87
2019-05-02T10:11:24.428Z,16.17
2019-05-02T10:13:51.892Z,17.73
2019-05-02T10:16:27.146Z,18.87
2019-05-02T10:18:55.722Z,17.93
2019-05-02T10:21:26.482Z,17.33
2019-05-02T10:23:59.462Z,24.00
2019-05-02T10:26:29.468Z,24.90
2019-05-02T10:29:02.047Z,20.93
2019-05-02T10:31:37.311Z,16.77
2019-05-02T10:34:08.426Z,16.97
2019-05-02T10:36:36.714Z,25.13
2019-05-02T10:39:08.217Z,19.80
2019-05-02T10:41:39.947Z,23.57
2019-05-02T10:44:12.705Z,18.10
2019-05-02T10:47:12.827Z,13.53
2019-05-02T10:49:52.591Z,16.50
2019-05-02T10:52:29.652Z,27.27
2019-05-02T10:54:54.986Z,19.90
2019-05-02T10:57:26.466Z,22.23
2019-05-02T10:59:57.002Z,17.13
2019-05-02T11:02:53.577Z,20.20
2019-05-02T11:05:26.523Z,17.17
2019-05-02T11:08:04.700Z,20.73
2019-05-02T11:10:29.379Z,19.07
2019-05-02T11:13:07.606Z,17.07
2019-05-02T11:15:55.715Z,18.10
2019-05-02T11:18:40.311Z,16.83
2019-05-02T11:21:04.361Z,22.47
2019-05-02T11:23:32.998Z,19.70
2019-05-02T11:26:03.489Z,16.17
2019-05-02T11:28:34.059Z,17.47
2019-05-02T11:31:06.532Z,21.40
2019-05-02T11:33:36.897Z,20.63
2019-05-02T11:36:07.341Z,22.37
2019-05-02T11:38:38.677Z,21.10
2019-05-02T11:41:11.853Z,17.93
2019-05-02T11:43:44.864Z,20.57
2019-05-02T11:46:14.163Z,18.97
2019-05-02T11:48:55.408Z,20.90
2019-05-02T11:51:17.078Z,118.07
2019-05-02T11:53:47.664Z,18.50
2019-05-02T11:56:18.220Z,19.20
2019-05-02T11:58:50.285Z,17.33
2019-05-02T12:01:35.073Z,29.80
2019-05-02T12:03:53.095Z,17.87
2019-05-02T12:06:23.746Z,17.57
2019-05-02T12:08:54.614Z,16.13
2019-05-02T12:11:26.354Z,20.10
2019-05-02T12:13:57.176Z,22.60
2019-05-02T12:16:27.871Z,17.57
2019-05-02T12:19:09.399Z,21.10
2019-05-02T12:21:32.471Z,16.33
2019-05-02T12:24:03.096Z,13.33
2019-05-02T12:26:34.170Z,13.43
2019-05-02T12:29:07.619Z,11.27
2019-05-02T12:31:38.140Z,19.90
2019-05-02T12:34:08.878Z,12.07
2019-05-02T12:36:39.478Z,12.20
2019-05-02T12:39:12.526Z,19.53
2019-05-02T12:41:43.080Z,16.10
2019-05-02T12:44:13.983Z,14.90
2019-05-02T12:46:44.559Z,18.00
2019-05-02T12:49:25.333Z,23.67
2019-05-02T12:51:49.839Z,13.47
2019-05-02T12:54:21.938Z,17.70
2019-05-02T12:56:52.989Z,14.13
2019-05-02T12:59:23.514Z,23.87
2019-05-02T13:01:54.549Z,19.77
2019-05-02T13:04:26.508Z,13.40
2019-05-02T13:06:57.018Z,14.10
2019-05-02T13:09:27.855Z,14.97
2019-05-02T13:12:13.303Z,16.87
2019-05-02T13:14:44.003Z,20.47
2019-05-02T13:17:14.690Z,10.63
2019-05-02T13:19:55.566Z,11.03
2019-05-02T13:22:39.287Z,14.43
2019-05-02T13:25:13.082Z,15.23
2019-05-02T13:27:48.018Z,15.57
2019-05-02T13:30:42.917Z,13.10
2019-05-02T13:33:12.205Z,11.77
2019-05-02T13:35:45.934Z,15.50
2019-05-02T13:38:19.545Z,12.30
2019-05-02T13:40:51.752Z,14.33
2019-05-02T13:43:24.995Z,13.17
2019-05-02T13:46:13.156Z,18.30
2019-05-02T13:48:43.835Z,12.87
2019-05-02T13:51:15.241Z,11.80
2019-05-02T13:53:56.109Z,12.70
2019-05-02T13:56:45.556Z,9.67
2019-05-02T13:59:16.777Z,12.07
2019-05-02T14:01:48.895Z,11.70
2019-05-02T14:04:19.717Z,11.30
2019-05-02T14:06:52.938Z,13.37
2019-05-02T14:09:33.287Z,16.60
2019-05-02T14:12:11.852Z,8.70
2019-05-02T14:14:43.008Z,11.67
2019-05-02T14:17:13.672Z,14.40
2019-05-02T14:19:44.213Z,11.83
2019-05-02T14:22:15.987Z,14.87
2019-05-02T14:24:46.519Z,10.23
2019-05-02T14:27:17.354Z,11.97
2019-05-02T14:29:47.889Z,14.03
2019-05-02T14:32:23.706Z,12.03
2019-05-02T14:35:09.502Z,43.03
2019-05-02T14:37:41.975Z,21.47
2019-05-02T14:40:27.812Z,12.00
2019-05-02T14:43:05.310Z,12.17
2019-05-02T14:45:33.401Z,9.43
2019-05-02T14:48:18.030Z,10.97
2019-05-02T14:50:36.647Z,9.63
2019-05-02T14:53:08.138Z,10.67
2019-05-02T14:55:42.095Z,14.30
2019-05-02T14:58:12.694Z,7.77
2019-05-02T15:00:47.911Z,28.83
2019-05-02T15:03:19.049Z,11.00
2019-05-02T15:05:49.513Z,9.53
2019-05-02T15:08:20.478Z,15.37
2019-05-02T15:10:56.392Z,12.83
2019-05-02T15:13:23.712Z,8.77
2019-05-02T15:15:54.209Z,17.67
2019-05-02T15:18:24.715Z,10.73
2019-05-02T15:20:55.239Z,11.57
2019-05-02T15:23:25.793Z,8.47
2019-05-02T15:25:56.362Z,11.90
2019-05-02T15:28:31.996Z,13.63
2019-05-02T15:31:08.182Z,7.20
2019-05-02T15:33:48.637Z,13.30
2019-05-02T15:36:19.142Z,15.33
2019-05-02T15:38:49.625Z,16.07
2019-05-02T15:41:21.817Z,9.47
2019-05-02T15:43:52.488Z,10.57
2019-05-02T15:46:28.198Z,13.00
2019-05-02T15:48:57.286Z,9.50
2019-05-02T15:51:27.531Z,12.30
2019-05-02T15:54:06.113Z,10.17
2019-05-02T15:56:52.519Z,11.40
2019-05-02T15:59:37.404Z,11.13
2019-05-02T16:02:17.621Z,11.40
2019-05-02T16:04:45.657Z,10.63
2019-05-02T16:07:16.363Z,11.97
2019-05-02T16:09:47.051Z,11.97
2019-05-02T16:12:17.713Z,7.13
2019-05-02T16:14:48.442Z,11.00
2019-05-02T16:17:24.227Z,18.37
2019-05-02T16:19:58.795Z,9.50
2019-05-02T16:22:29.413Z,14.30
2019-05-02T16:25:01.579Z,9.37
2019-05-02T16:27:48.030Z,8.60
2019-05-02T16:30:22.166Z,12.87
2019-05-02T16:32:59.812Z,12.10
2019-05-02T16:35:31.913Z,13.27
2019-05-02T16:38:02.666Z,11.97
2019-05-02T16:40:34.890Z,8.20
2019-05-02T16:43:05.756Z,9.97
2019-05-02T16:45:37.512Z,6.93
2019-05-02T16:48:08.460Z,9.30
2019-05-02T16:50:39.289Z,11.43
2019-05-02T16:53:11.687Z,8.63
2019-05-02T16:55:43.612Z,15.73
2019-05-02T16:58:14.100Z,7.90
2019-05-02T17:00:45.577Z,13.00
2019-05-02T17:03:17.360Z,11.60
2019-05-02T17:05:49.610Z,13.20
2019-05-02T17:08:30.154Z,9.53
2019-05-02T17:11:17.044Z,14.70
2019-05-02T17:13:47.615Z,19.77
2019-05-02T17:16:18.164Z,14.07
2019-05-02T17:18:55.057Z,19.10
2019-05-02T17:21:22.156Z,11.53
2019-05-02T17:23:52.812Z,11.40
2019-05-02T17:26:23.444Z,9.30
2019-05-02T17:28:53.887Z,11.17
2019-05-02T17:31:24.369Z,10.07
2019-05-02T17:33:55.057Z,14.70
2019-05-02T17:36:28.586Z,9.33
2019-05-02T17:38:59.358Z,10.53
2019-05-02T17:41:31.706Z,9.57
2019-05-02T17:44:03.153Z,17.47
2019-05-02T17:46:33.824Z,15.63
2019-05-02T17:49:04.321Z,13.10
2019-05-02T17:52:05.609Z,12.57
2019-05-02T17:54:32.037Z,14.77
2019-05-02T17:57:02.758Z,11.87
2019-05-02T17:59:36.624Z,19.47
2019-05-02T18:02:06.558Z,13.57
2019-05-02T18:04:37.537Z,15.57
2019-05-02T18:07:08.134Z,14.50
2019-05-02T18:09:38.661Z,11.50
2019-05-02T18:12:14.461Z,22.50
2019-05-02T18:14:42.181Z,12.70
2019-05-02T18:17:12.853Z,15.13
2019-05-02T18:19:43.493Z,14.50
2019-05-02T18:22:23.389Z,16.67
2019-05-02T18:24:46.479Z,20.80
2019-05-02T18:27:18.068Z,18.57
2019-05-02T18:29:49.013Z,19.27
2019-05-02T18:32:24.496Z,19.70
2019-05-02T18:34:52.089Z,17.00
2019-05-02T18:37:22.532Z,17.47
2019-05-02T18:39:55.829Z,17.20
2019-05-02T18:42:25.680Z,18.53
2019-05-02T18:44:56.712Z,19.33
2019-05-02T18:47:27.322Z,18.17
2019-05-02T18:50:02.125Z,38.37
2019-05-02T18:52:38.072Z,15.60
2019-05-02T18:55:05.649Z,29.03
2019-05-02T18:57:35.292Z,23.43
2019-05-02T19:00:06.072Z,21.33
2019-05-02T19:02:38.056Z,20.00
2019-05-02T19:05:13.410Z,21.60
2019-05-02T19:07:42.866Z,20.73
2019-05-02T19:10:15.787Z,25.67
2019-05-02T19:12:46.300Z,24.73
2019-05-02T19:15:17.178Z,28.37
2019-05-02T19:17:47.709Z,20.20
2019-05-02T19:21:03.045Z,21.23
2019-05-02T19:23:34.589Z,23.27
2019-05-02T19:26:10.131Z,21.83
2019-05-02T19:29:15.715Z,23.30
2019-05-02T19:31:49.233Z,26.40
2019-05-02T19:34:22.878Z,31.40
2019-05-02T19:36:52.890Z,29.17
2019-05-02T19:39:24.292Z,29.80
2019-05-02T19:41:55.233Z,29.77
2019-05-02T19:44:29.080Z,30.70
2019-05-02T19:46:58.176Z,35.33
2019-05-02T19:49:28.763Z,50.60
2019-05-02T19:51:59.323Z,49.57
2019-05-02T19:54:33.598Z,105.00
2019-05-02T19:57:01.964Z,57.37
2019-05-02T19:59:32.714Z,34.37
2019-05-02T20:02:06.039Z,29.30
2019-05-02T20:04:37.632Z,28.97
2019-05-02T20:07:07.792Z,37.03
2019-05-02T20:09:45.652Z,28.07
2019-05-02T20:12:15.462Z,29.97
2019-05-02T20:14:47.364Z,30.90
2019-05-02T20:17:19.979Z,30.60
2019-05-02T20:19:52.887Z,29.70
2019-05-02T20:22:23.556Z,55.97
2019-05-02T20:25:00.205Z,40.23
2019-05-02T20:27:29.739Z,33.77
2019-05-02T20:30:02.794Z,33.50
2019-05-02T20:32:33.236Z,30.77
2019-05-02T20:35:03.801Z,31.17
2019-05-02T20:37:34.331Z,33.73
2019-05-02T20:40:05.116Z,29.97
2019-05-02T20:42:35.590Z,30.67
2019-05-02T20:45:06.395Z,50.20
2019-05-02T20:47:36.922Z,32.83
2019-05-02T20:50:07.793Z,31.40
2019-05-02T20:52:38.386Z,30.17
2019-05-02T20:55:08.995Z,31.10
2019-05-02T20:57:39.547Z,155.67
2019-05-02T21:00:17.845Z,61.93
2019-05-02T21:02:48.443Z,42.83
2019-05-02T21:05:24.703Z,34.57
2019-05-02T21:08:13.616Z,36.97
2019-05-02T21:10:45.150Z,37.87
2019-05-02T21:13:15.731Z,39.27
2019-05-02T21:15:46.327Z,41.77
2019-05-02T21:18:16.814Z,39.97
2019-05-02T21:20:47.632Z,40.80
2019-05-02T21:23:18.102Z,49.97
2019-05-02T21:25:48.675Z,38.17
2019-05-02T21:28:19.287Z,40.10
2019-05-02T21:30:52.197Z,39.93
2019-05-02T21:33:33.318Z,35.03
2019-05-02T21:36:04.103Z,40.27
2019-05-02T21:38:34.798Z,37.03
2019-05-02T21:41:08.168Z,34.77
2019-05-02T21:43:38.612Z,38.60
2019-05-02T21:46:09.420Z,42.37
2019-05-02T21:48:41.847Z,45.23
2019-05-02T21:51:34.310Z,45.93
2019-05-02T21:54:26.363Z,40.43
2019-05-02T21:57:04.150Z,51.40
2019-05-02T21:59:34.628Z,51.40
2019-05-02T22:02:07.748Z,52.47
2019-05-02T22:04:38.609Z,56.73
2019-05-02T22:07:09.347Z,55.07
2019-05-02T22:09:41.659Z,46.13
2019-05-02T22:12:13.289Z,45.97
2019-05-02T22:14:43.864Z,48.97
2019-05-02T22:17:16.969Z,57.37
2019-05-02T22:19:46.657Z,56.40
2019-05-02T22:22:17.091Z,47.13
2019-05-02T22:24:47.697Z,54.03
2019-05-02T22:27:19.148Z,47.03
2019-05-02T22:29:49.634Z,48.77
2019-05-02T22:32:20.102Z,51.13
2019-05-02T22:34:53.513Z,45.17
2019-05-02T22:37:24.309Z,47.30
2019-05-02T22:39:59.642Z,49.37
2019-05-02T22:42:32.256Z,46.77
2019-05-02T22:45:04.588Z,42.13
2019-05-02T22:47:34.555Z,44.43
2019-05-02T22:50:05.699Z,45.10
2019-05-02T22:52:36.197Z,44.03
2019-05-02T22:55:07.775Z,45.77
2019-05-02T22:57:38.310Z,48.90
2019-05-02T23:00:09.375Z,60.10
2019-05-02T23:02:41.921Z,46.67
2019-05-02T23:05:12.863Z,44.73
2019-05-02T23:07:43.374Z,38.10
2019-05-02T23:10:14.145Z,49.30
2019-05-02T23:12:44.680Z,42.70
2019-05-02T23:15:15.444Z,48.60
2019-05-02T23:17:45.946Z,45.03
2019-05-02T23:20:16.519Z,48.50
2019-05-02T23:22:47.054Z,42.73
2019-05-02T23:25:35.292Z,42.60
2019-05-02T23:28:10.039Z,40.37
2019-05-02T23:30:42.351Z,40.97
2019-05-02T23:33:13.130Z,44.93
2019-05-02T23:35:43.650Z,38.77
2019-05-02T23:38:15.315Z,45.03
2019-05-02T23:40:45.829Z,42.83
2019-05-02T23:43:16.285Z,40.80
2019-05-02T23:45:46.811Z,41.87
2019-05-02T23:48:17.297Z,44.93
2019-05-02T23:50:47.869Z,43.27
2019-05-02T23:53:18.301Z,39.50
2019-05-02T23:55:48.913Z,38.87
2019-05-02T23:58:19.458Z,36.73
